Antalya, Turkey

6:54 PM EEST on May 27, 2015 (GMT +0300)
Antalya | | Change Station
CLOSE
Current Station
Airport
Location: Antalya,
Elevation: 174 ft
Nearby Weather Stations

Elev 174 ft 36.90 °N, 30.80 °E | Updated 34 minutes ago

Mostly Cloudy
Mostly Cloudy
75 °F
Feels Like 75 °F
N
8
Wind Variable Wind from SSE

Today
High -- | Low -- °F
--% Chance of Precip.
Yesterday
High -- | Low -- °F
Precip. -- in
5:41 AM 8:07 PM
Waxing Gibbous, 68% visible
Pressure 29.65 in
Visibility 6.2 miles
Clouds Scattered Clouds 3000 ft
Mostly Cloudy 10000 ft
Dew Point 61 °F
Humidity 61%
Rainfall 0.00 in
Snow Depth Not available.
UV 1 out of 12
Pollen Not available.
Air Quality Not available.
Flu Activity Not available.
METAR LTAI 271520Z 15007KT 100V190 9999 SCT030 BKN100 24/16 Q1004 NOSIG

More Conditions Fewer Conditions

Pressure 29.65 in
Visibility 6.2 miles
Clouds Scattered Clouds 3000 ft
Mostly Cloudy 10000 ft
Dew Point 61 °F
Humidity 61%
Rainfall 0.00 in
Snow Depth Not available.
UV 1 out of 12
Pollen Not available.
Air Quality Not available.
Flu Activity Not available.
METAR LTAI 271520Z 15007KT 100V190 9999 SCT030 BKN100 24/16 Q1004 NOSIG

More Conditions Fewer Conditions

10-Day Weather Forecast

Almanac

Astronomy

May. 27, 2015 Rise Set
Actual Time
Civil Twilight
Nautical Twilight
Astronomical Twilight
Moon
Length of Visible Light
Length of Day
Tomorrow will be .
, % of the Moon is Illuminated

Today's Extremes

Country Highs Country Lows

Community

WunderPhotos

Upload Photos

1,824,699 photos uploaded!

WunderBlogs® & News

Nearby

Air Quality

  Air Quality AQ Index Pollutant
Not available.

Snow Depth

Station Depth Elevation

Earthquake Activity

City Distance Mag. Time & Date
Minimum magnitude displayed is 2.5.

Coastal Water Temperatures

Place Temperature

Stations

Nearby Weather Stations

Station Location Temp. Windchill Dew Point Humidity Wind Precip. Elev Updated Type